createdAt,value
2018-01-01T00:01:47.765Z,84.27
2018-01-01T00:04:13.861Z,83.57
2018-01-01T00:06:39.967Z,83.15
2018-01-01T00:09:05.983Z,82.63
2018-01-01T00:11:32.047Z,82.10
2018-01-01T00:13:58.089Z,82.12
2018-01-01T00:16:24.117Z,81.72
2018-01-01T00:18:50.151Z,81.74
2018-01-01T00:21:16.162Z,81.39
2018-01-01T00:23:42.196Z,81.23
2018-01-01T00:26:08.304Z,80.67
2018-01-01T00:28:34.374Z,81.14
2018-01-01T00:31:00.427Z,81.26
2018-01-01T00:33:26.459Z,80.93
2018-01-01T00:35:52.492Z,80.79
2018-01-01T00:38:18.496Z,80.78
2018-01-01T00:40:44.564Z,80.55
2018-01-01T00:43:10.581Z,80.71
2018-01-01T00:45:36.646Z,80.32
2018-01-01T00:48:02.800Z,79.24
2018-01-01T00:50:28.860Z,79.12
2018-01-01T00:52:54.910Z,79.09
2018-01-01T00:55:21.028Z,78.56
2018-01-01T00:57:47.066Z,78.16
2018-01-01T01:00:13.106Z,78.13
2018-01-01T01:02:39.164Z,78.04
2018-01-01T01:05:05.285Z,77.85
2018-01-01T01:07:31.366Z,77.96
2018-01-01T01:09:57.404Z,77.25
2018-01-01T01:12:23.449Z,77.68
2018-01-01T01:14:49.488Z,78.05
2018-01-01T01:17:15.497Z,77.63
2018-01-01T01:19:41.525Z,78.26
2018-01-01T01:22:07.557Z,76.86
2018-01-01T01:24:33.574Z,76.12
2018-01-01T01:26:59.609Z,76.08
2018-01-01T01:29:25.664Z,75.43
2018-01-01T01:31:51.699Z,75.37
2018-01-01T01:34:17.719Z,74.72
2018-01-01T01:36:43.685Z,75.07
2018-01-01T01:39:09.705Z,74.99
2018-01-01T01:41:35.970Z,74.94
2018-01-01T01:44:02.061Z,75.46
2018-01-01T01:46:28.118Z,74.75
2018-01-01T01:48:54.172Z,75.21
2018-01-01T01:51:20.249Z,75.67
2018-01-01T01:53:46.252Z,74.96
2018-01-01T01:56:12.779Z,75.56
2018-01-01T01:58:39.615Z,74.92
2018-01-01T02:01:05.745Z,75.65
2018-01-01T02:03:31.844Z,75.58
2018-01-01T02:05:57.866Z,75.94
2018-01-01T02:08:23.859Z,75.85
2018-01-01T02:10:49.869Z,76.24
2018-01-01T02:13:15.953Z,76.12
2018-01-01T02:15:41.990Z,75.42
2018-01-01T02:18:08.076Z,75.80
2018-01-01T02:20:34.085Z,75.10
2018-01-01T02:23:00.117Z,74.50
2018-01-01T02:25:26.164Z,74.37
2018-01-01T02:27:52.248Z,73.47
2018-01-01T02:30:18.288Z,73.46
2018-01-01T02:32:50.374Z,73.32
2018-01-01T02:35:16.412Z,73.20
2018-01-01T02:37:42.453Z,73.42
2018-01-01T02:40:08.505Z,74.02
2018-01-01T02:42:34.559Z,73.66
2018-01-01T02:45:00.589Z,73.94
2018-01-01T02:47:26.645Z,74.03
2018-01-01T02:49:52.753Z,74.45
2018-01-01T02:52:18.822Z,75.00
2018-01-01T02:54:44.842Z,74.71
2018-01-01T02:57:10.941Z,74.94
2018-01-01T02:59:36.941Z,74.87
2018-01-01T03:02:03.218Z,75.18
2018-01-01T03:04:29.263Z,75.29
2018-01-01T03:06:55.365Z,75.40
2018-01-01T03:09:21.429Z,75.48
2018-01-01T03:11:47.458Z,75.36
2018-01-01T03:14:13.564Z,75.25
2018-01-01T03:16:39.564Z,75.43
2018-01-01T03:19:05.577Z,75.60
2018-01-01T03:21:31.657Z,76.06
2018-01-01T03:23:57.726Z,76.07
2018-01-01T03:26:23.725Z,76.03
2018-01-01T03:28:49.772Z,76.64
2018-01-01T03:31:15.810Z,76.56
2018-01-01T03:33:41.820Z,76.57
2018-01-01T03:36:08.169Z,76.86
2018-01-01T03:38:34.236Z,76.65
2018-01-01T03:41:00.213Z,76.74
2018-01-01T03:43:26.241Z,77.06
2018-01-01T03:45:52.244Z,77.08
2018-01-01T03:48:18.256Z,77.33
2018-01-01T03:50:44.284Z,77.44
2018-01-01T03:53:10.293Z,77.54
2018-01-01T03:55:36.350Z,77.85
2018-01-01T03:58:02.353Z,77.66
2018-01-01T04:00:28.388Z,77.85
2018-01-01T04:02:54.441Z,77.51
2018-01-01T04:05:20.441Z,77.40
2018-01-01T04:07:46.479Z,77.03
2018-01-01T04:10:12.524Z,76.98
2018-01-01T04:12:38.701Z,76.92
2018-01-01T04:15:04.724Z,76.53
2018-01-01T04:17:30.749Z,76.23
2018-01-01T04:19:56.776Z,76.68
2018-01-01T04:22:22.829Z,75.64
2018-01-01T04:24:48.865Z,75.67
2018-01-01T04:27:14.928Z,75.63
2018-01-01T04:29:40.906Z,75.65
2018-01-01T04:32:06.881Z,75.54
2018-01-01T04:34:32.905Z,75.86
2018-01-01T04:36:58.950Z,75.36
2018-01-01T04:39:24.975Z,75.46
2018-01-01T04:41:51.001Z,75.27
2018-01-01T04:44:17.108Z,75.53
2018-01-01T04:46:43.129Z,75.58
2018-01-01T04:49:09.148Z,75.45
2018-01-01T04:51:35.177Z,75.19
2018-01-01T04:54:01.196Z,75.06
2018-01-01T04:56:27.241Z,75.40
2018-01-01T04:58:53.249Z,74.83
2018-01-01T05:01:19.304Z,74.85
2018-01-01T05:03:45.447Z,74.96
2018-01-01T05:06:11.500Z,74.88
2018-01-01T05:08:37.522Z,75.03
2018-01-01T05:11:03.568Z,74.80
2018-01-01T05:13:29.588Z,74.52
2018-01-01T05:15:55.592Z,74.53
2018-01-01T05:18:21.652Z,74.63
2018-01-01T05:20:47.666Z,75.01
2018-01-01T05:23:13.690Z,74.36
2018-01-01T05:25:39.737Z,74.38
2018-01-01T05:28:05.772Z,74.30
2018-01-01T05:30:31.756Z,74.61
2018-01-01T05:32:57.795Z,74.64
2018-01-01T05:35:23.750Z,74.73
2018-01-01T05:37:49.813Z,75.01
2018-01-01T05:40:15.806Z,74.84
2018-01-01T05:42:41.832Z,74.72
2018-01-01T05:45:07.873Z,74.62
2018-01-01T05:47:33.890Z,74.60
2018-01-01T05:49:59.923Z,74.75
2018-01-01T05:52:25.953Z,75.08
2018-01-01T05:54:52.006Z,74.89
2018-01-01T05:57:18.028Z,74.79
2018-01-01T05:59:44.029Z,74.98
2018-01-01T06:02:10.149Z,74.69
2018-01-01T06:04:36.165Z,74.98
2018-01-01T06:07:02.189Z,74.75
2018-01-01T06:09:28.268Z,74.38
2018-01-01T06:11:54.297Z,74.61
2018-01-01T06:14:20.316Z,74.56
2018-01-01T06:16:46.312Z,74.91
2018-01-01T06:19:12.406Z,74.72
2018-01-01T06:21:38.453Z,74.73
2018-01-01T06:24:04.497Z,73.86
2018-01-01T06:26:30.522Z,73.76
2018-01-01T06:28:56.544Z,73.36
2018-01-01T06:31:22.512Z,73.52
2018-01-01T06:33:48.536Z,73.68
2018-01-01T06:36:14.524Z,73.10
2018-01-01T06:38:41.391Z,71.64
2018-01-01T06:41:07.817Z,71.08
2018-01-01T06:43:33.884Z,71.04
2018-01-01T06:45:59.908Z,71.05
2018-01-01T06:48:25.918Z,71.02
2018-01-01T06:50:52.009Z,70.74
2018-01-01T06:53:18.054Z,70.61
2018-01-01T06:55:44.121Z,71.09
2018-01-01T06:58:10.164Z,70.73
2018-01-01T07:00:36.216Z,70.51
2018-01-01T07:03:02.320Z,70.34
2018-01-01T07:05:28.369Z,70.82
2018-01-01T07:07:54.376Z,70.51
2018-01-01T07:10:20.433Z,70.57
2018-01-01T07:12:46.485Z,70.21
2018-01-01T07:15:12.532Z,70.88
2018-01-01T07:17:38.593Z,70.07
2018-01-01T07:20:04.578Z,70.56
2018-01-01T07:22:30.652Z,70.73
2018-01-01T07:24:56.725Z,71.22
2018-01-01T07:27:22.820Z,71.49
2018-01-01T07:29:48.842Z,71.63
2018-01-01T07:32:14.902Z,71.83
2018-01-01T07:34:40.989Z,72.42
2018-01-01T07:37:07.011Z,71.93
2018-01-01T07:39:33.055Z,72.28
2018-01-01T07:41:59.083Z,72.54
2018-01-01T07:44:25.160Z,72.62
2018-01-01T07:46:51.176Z,72.60
2018-01-01T07:49:17.239Z,72.78
2018-01-01T07:51:43.356Z,72.71
2018-01-01T07:54:09.386Z,71.99
2018-01-01T07:56:35.433Z,72.21
2018-01-01T07:59:01.478Z,71.72
2018-01-01T08:01:27.577Z,71.79
2018-01-01T08:03:53.896Z,71.23
2018-01-01T08:06:19.928Z,71.76
2018-01-01T08:08:45.973Z,71.30
2018-01-01T08:11:12.173Z,70.87
2018-01-01T08:13:38.243Z,70.76
2018-01-01T08:16:04.377Z,71.17
2018-01-01T08:18:30.348Z,71.22
2018-01-01T08:20:56.396Z,72.56
2018-01-01T08:23:22.409Z,73.36
2018-01-01T08:25:48.375Z,75.02
2018-01-01T08:28:14.376Z,74.60
2018-01-01T08:30:40.413Z,74.72
2018-01-01T08:33:06.436Z,75.31
2018-01-01T08:35:32.457Z,75.55
2018-01-01T08:37:58.486Z,76.72
2018-01-01T08:40:24.516Z,77.12
2018-01-01T08:42:50.516Z,77.83
2018-01-01T08:45:16.540Z,78.22
2018-01-01T08:47:42.565Z,78.50
2018-01-01T08:50:08.829Z,79.05
2018-01-01T08:52:34.840Z,78.45
2018-01-01T08:55:00.937Z,78.66
2018-01-01T08:57:26.979Z,79.47
2018-01-01T08:59:53.105Z,79.86
2018-01-01T09:02:19.122Z,78.84
2018-01-01T09:04:45.194Z,79.02
2018-01-01T09:07:11.192Z,78.89
2018-01-01T09:09:37.208Z,78.81
2018-01-01T09:12:03.273Z,78.98
2018-01-01T09:14:29.300Z,79.53
2018-01-01T09:16:55.356Z,79.02
2018-01-01T09:19:21.389Z,80.21
2018-01-01T09:21:47.404Z,80.17
2018-01-01T09:24:13.451Z,79.66
2018-01-01T09:26:39.465Z,79.70
2018-01-01T09:29:05.552Z,79.32
2018-01-01T09:31:31.602Z,78.81
2018-01-01T09:33:57.771Z,79.70
2018-01-01T09:36:23.820Z,79.13
2018-01-01T09:38:49.833Z,79.22
2018-01-01T09:41:15.865Z,78.89
2018-01-01T09:43:41.924Z,78.80
2018-01-01T09:46:08.106Z,79.27
2018-01-01T09:48:34.136Z,78.84
2018-01-01T09:51:00.177Z,79.00
2018-01-01T09:53:26.219Z,79.28
2018-01-01T09:55:52.257Z,79.34
2018-01-01T09:58:18.288Z,78.45
2018-01-01T10:00:44.365Z,77.79
2018-01-01T10:03:10.345Z,77.36
2018-01-01T10:05:36.368Z,77.59
2018-01-01T10:08:02.412Z,77.49
2018-01-01T10:10:28.462Z,76.90
2018-01-01T10:12:54.545Z,76.84
2018-01-01T10:15:20.604Z,76.24
2018-01-01T10:17:46.622Z,76.24
2018-01-01T10:20:12.713Z,76.74
2018-01-01T10:22:38.737Z,76.85
2018-01-01T10:25:04.781Z,77.15
2018-01-01T10:27:30.782Z,76.86
2018-01-01T10:29:56.780Z,76.97
2018-01-01T10:32:22.823Z,76.49
2018-01-01T10:34:48.875Z,76.33
2018-01-01T10:37:14.938Z,75.52
2018-01-01T10:39:41.002Z,75.33
2018-01-01T10:42:07.100Z,75.18
2018-01-01T10:44:33.051Z,75.85
2018-01-01T10:46:59.082Z,74.24
2018-01-01T10:49:25.172Z,74.33
2018-01-01T10:51:51.140Z,74.66
2018-01-01T10:54:17.254Z,74.56
2018-01-01T10:56:43.300Z,74.76
2018-01-01T10:59:09.407Z,74.09
2018-01-01T11:01:35.507Z,72.89
2018-01-01T11:04:01.521Z,71.91
2018-01-01T11:06:27.613Z,69.77
2018-01-01T11:08:53.733Z,70.05
2018-01-01T11:11:19.756Z,69.72
2018-01-01T11:13:45.869Z,69.57
2018-01-01T11:16:11.929Z,67.04
2018-01-01T11:18:37.945Z,66.94
2018-01-01T11:21:03.949Z,67.11
2018-01-01T11:23:30.041Z,66.60
2018-01-01T11:25:56.085Z,65.84
2018-01-01T11:28:22.109Z,66.08
2018-01-01T11:30:48.118Z,66.96
2018-01-01T11:33:24.134Z,66.39
2018-01-01T11:35:50.186Z,66.86
2018-01-01T11:38:16.205Z,67.17
2018-01-01T11:40:42.278Z,67.07
2018-01-01T11:43:08.578Z,67.83
2018-01-01T11:45:34.608Z,67.93
2018-01-01T11:48:00.632Z,68.01
2018-01-01T11:50:26.677Z,67.69
2018-01-01T11:52:52.705Z,68.01
2018-01-01T11:55:18.777Z,67.92
2018-01-01T11:57:44.950Z,68.03
2018-01-01T12:00:10.974Z,68.06
2018-01-01T12:02:37.054Z,67.84
2018-01-01T12:05:03.225Z,68.48
2018-01-01T12:07:29.275Z,68.13
2018-01-01T12:09:55.392Z,67.96
2018-01-01T12:12:21.439Z,68.39
2018-01-01T12:14:47.519Z,68.94
2018-01-01T12:17:13.604Z,67.81
2018-01-01T12:19:39.693Z,66.97
2018-01-01T12:22:05.657Z,67.53
2018-01-01T12:24:31.726Z,67.63
2018-01-01T12:26:57.823Z,67.89
2018-01-01T12:29:23.873Z,67.90
2018-01-01T12:31:49.921Z,67.95
2018-01-01T12:34:15.964Z,67.95
2018-01-01T12:36:41.977Z,67.80
2018-01-01T12:39:08.031Z,68.23
2018-01-01T12:41:34.081Z,68.39
2018-01-01T12:44:00.145Z,68.49
2018-01-01T12:46:26.197Z,67.33
2018-01-01T12:48:52.278Z,67.88
2018-01-01T12:51:18.311Z,68.90
2018-01-01T12:53:44.533Z,68.30
2018-01-01T12:56:10.625Z,67.86
2018-01-01T12:58:36.678Z,67.38
2018-01-01T13:01:02.737Z,67.58
2018-01-01T13:03:28.780Z,66.96
2018-01-01T13:05:54.880Z,66.16
2018-01-01T13:08:20.900Z,65.62
2018-01-01T13:10:46.956Z,65.73
2018-01-01T13:13:13.033Z,64.85
2018-01-01T13:15:39.056Z,64.57
2018-01-01T13:18:05.400Z,63.31
2018-01-01T13:20:31.499Z,63.35
2018-01-01T13:22:57.617Z,63.06
2018-01-01T13:25:23.626Z,63.70
2018-01-01T13:27:49.718Z,64.18
2018-01-01T13:30:15.808Z,64.71
2018-01-01T13:32:41.865Z,64.96
2018-01-01T13:35:07.944Z,64.75
2018-01-01T13:37:34.023Z,65.81
2018-01-01T13:40:00.076Z,65.23
2018-01-01T13:42:26.120Z,64.89
2018-01-01T13:44:52.236Z,65.18
2018-01-01T13:47:18.365Z,65.48
2018-01-01T13:49:44.445Z,64.64
2018-01-01T13:52:10.497Z,65.08
2018-01-01T13:54:36.573Z,63.60
2018-01-01T13:57:02.798Z,62.08
2018-01-01T13:59:28.917Z,60.09
2018-01-01T14:01:54.947Z,57.36
2018-01-01T14:04:20.993Z,56.80
2018-01-01T14:06:47.139Z,55.71
2018-01-01T14:09:13.268Z,58.18
2018-01-01T14:11:39.329Z,59.18
2018-01-01T14:14:05.393Z,58.24
2018-01-01T14:16:31.460Z,59.41
2018-01-01T14:18:57.437Z,61.12
2018-01-01T14:21:23.481Z,61.37
2018-01-01T14:23:49.496Z,61.59
2018-01-01T14:26:15.556Z,61.54
2018-01-01T14:28:41.533Z,62.45
2018-01-01T14:31:07.560Z,63.05
2018-01-01T14:33:33.582Z,62.72
2018-01-01T14:35:59.636Z,63.45
2018-01-01T14:38:25.674Z,62.70
2018-01-01T14:40:51.717Z,63.05
2018-01-01T14:43:17.808Z,63.53
2018-01-01T14:45:43.830Z,64.17
2018-01-01T14:48:09.911Z,64.87
2018-01-01T14:50:35.946Z,64.68
2018-01-01T14:53:02.043Z,64.46
2018-01-01T14:55:28.120Z,65.22
2018-01-01T14:57:54.233Z,65.69
2018-01-01T15:00:20.374Z,65.55
2018-01-01T15:02:46.421Z,66.25
2018-01-01T15:05:12.473Z,66.72
2018-01-01T15:07:38.536Z,66.73
2018-01-01T15:10:04.609Z,67.10
2018-01-01T15:12:30.616Z,67.29
2018-01-01T15:14:56.692Z,67.83
2018-01-01T15:17:22.674Z,68.23
2018-01-01T15:19:48.705Z,68.53
2018-01-01T15:22:14.756Z,68.60
2018-01-01T15:24:40.787Z,68.71
2018-01-01T15:27:06.846Z,68.90
2018-01-01T15:29:32.893Z,69.38
2018-01-01T15:31:58.980Z,69.56
2018-01-01T15:34:24.997Z,69.69
2018-01-01T15:36:51.404Z,69.98
2018-01-01T15:39:17.428Z,70.18
2018-01-01T15:41:43.533Z,70.71
2018-01-01T15:44:09.608Z,70.85
2018-01-01T15:46:35.595Z,70.98
2018-01-01T15:49:01.834Z,71.24
2018-01-01T15:51:27.838Z,71.38
2018-01-01T15:53:53.961Z,72.29
2018-01-01T15:56:20.009Z,72.46
2018-01-01T15:58:46.040Z,72.80
2018-01-01T16:01:12.061Z,73.36
2018-01-01T16:03:38.049Z,74.17
2018-01-01T16:06:04.112Z,74.37
2018-01-01T16:08:30.157Z,74.61
2018-01-01T16:10:56.220Z,75.22
2018-01-01T16:13:22.225Z,75.47
2018-01-01T16:15:48.339Z,74.07
2018-01-01T16:18:14.548Z,73.84
2018-01-01T16:20:40.557Z,74.41
2018-01-01T16:23:06.619Z,74.65
2018-01-01T16:25:32.639Z,75.51
2018-01-01T16:27:58.680Z,75.75
2018-01-01T16:30:24.710Z,75.68
2018-01-01T16:32:50.747Z,76.46
2018-01-01T16:35:16.894Z,76.41
2018-01-01T16:37:42.924Z,76.36
2018-01-01T16:40:08.876Z,76.37
2018-01-01T16:42:34.904Z,76.93
2018-01-01T16:45:00.961Z,76.77
2018-01-01T16:47:26.969Z,77.38
2018-01-01T16:49:53.069Z,77.89
2018-01-01T16:52:19.089Z,77.86
2018-01-01T16:54:45.249Z,77.55
2018-01-01T16:57:11.293Z,77.97
2018-01-01T16:59:37.318Z,78.25
2018-01-01T17:02:03.365Z,77.82
2018-01-01T17:04:29.378Z,77.43
2018-01-01T17:06:55.405Z,77.70
2018-01-01T17:09:21.466Z,77.85
2018-01-01T17:11:47.528Z,78.12
2018-01-01T17:14:13.548Z,78.12
2018-01-01T17:16:39.590Z,78.64
2018-01-01T17:19:05.695Z,78.66
2018-01-01T17:21:31.784Z,78.82
2018-01-01T17:23:57.776Z,79.13
2018-01-01T17:26:23.808Z,79.21
2018-01-01T17:28:49.881Z,79.10
2018-01-01T17:31:16.006Z,79.71
2018-01-01T17:33:42.092Z,79.83
2018-01-01T17:36:09.098Z,80.27
2018-01-01T17:38:35.253Z,80.04
2018-01-01T17:41:01.348Z,79.52
2018-01-01T17:43:27.417Z,79.51
2018-01-01T17:45:53.594Z,79.54
2018-01-01T17:48:19.617Z,79.41
2018-01-01T17:50:45.885Z,79.59
2018-01-01T17:53:11.945Z,79.12
2018-01-01T17:55:38.100Z,79.01
2018-01-01T17:58:04.199Z,79.42
2018-01-01T18:00:30.281Z,79.41
2018-01-01T18:02:56.341Z,79.77
2018-01-01T18:05:23.338Z,80.23
2018-01-01T18:07:49.365Z,80.08
2018-01-01T18:10:15.391Z,80.30
2018-01-01T18:12:41.510Z,79.70
2018-01-01T18:15:07.536Z,79.71
2018-01-01T18:17:33.629Z,79.60
2018-01-01T18:19:59.688Z,79.00
2018-01-01T18:22:25.801Z,78.98
2018-01-01T18:24:51.825Z,78.23
2018-01-01T18:27:17.866Z,78.29
2018-01-01T18:29:43.965Z,78.73
2018-01-01T18:32:09.996Z,78.80
2018-01-01T18:34:36.061Z,78.75
2018-01-01T18:37:02.109Z,78.95
2018-01-01T18:39:28.186Z,79.46
2018-01-01T18:41:54.237Z,79.74
2018-01-01T18:44:20.297Z,80.03
2018-01-01T18:46:46.293Z,79.98
2018-01-01T18:49:12.329Z,79.98
2018-01-01T18:51:38.367Z,80.48
2018-01-01T18:54:04.394Z,80.77
2018-01-01T18:56:30.512Z,80.61
2018-01-01T18:58:56.565Z,81.06
2018-01-01T19:01:22.610Z,79.72
2018-01-01T19:03:48.624Z,81.11
2018-01-01T19:06:14.712Z,80.44
2018-01-01T19:08:40.760Z,79.51
2018-01-01T19:11:06.793Z,77.99
2018-01-01T19:13:32.944Z,77.39
2018-01-01T19:15:59.047Z,77.05
2018-01-01T19:18:25.106Z,78.11
2018-01-01T19:20:51.149Z,76.90
2018-01-01T19:23:17.254Z,77.14
2018-01-01T19:25:43.345Z,77.58
2018-01-01T19:28:09.410Z,78.67
2018-01-01T19:30:35.439Z,77.24
2018-01-01T19:33:01.468Z,77.53
2018-01-01T19:35:27.573Z,77.34
2018-01-01T19:37:53.763Z,77.96
2018-01-01T19:40:19.792Z,77.94
2018-01-01T19:42:45.883Z,78.12
2018-01-01T19:45:11.993Z,78.24
2018-01-01T19:47:38.121Z,78.41
2018-01-01T19:50:04.140Z,78.47
2018-01-01T19:52:31.376Z,78.69
2018-01-01T19:54:57.481Z,77.20
2018-01-01T19:57:23.567Z,77.74
2018-01-01T19:59:49.809Z,76.31
2018-01-01T20:02:15.857Z,77.04
2018-01-01T20:04:41.981Z,76.32
2018-01-01T20:07:08.082Z,76.08
2018-01-01T20:09:34.193Z,75.83
2018-01-01T20:12:00.233Z,75.62
2018-01-01T20:14:26.301Z,75.78
2018-01-01T20:16:52.354Z,76.99
2018-01-01T20:19:18.421Z,77.39
2018-01-01T20:21:44.492Z,77.84
2018-01-01T20:24:10.518Z,77.39
2018-01-01T20:26:36.557Z,76.91
2018-01-01T20:29:02.620Z,76.79
2018-01-01T20:31:28.674Z,77.17
2018-01-01T20:33:54.746Z,77.69
2018-01-01T20:36:20.798Z,77.81
2018-01-01T20:38:46.914Z,78.18
2018-01-01T20:41:12.936Z,78.02
2018-01-01T20:43:39.006Z,78.77
2018-01-01T20:46:05.073Z,78.79
2018-01-01T20:48:31.058Z,78.81
2018-01-01T20:50:57.153Z,78.53
2018-01-01T20:53:23.180Z,79.34
2018-01-01T20:55:49.263Z,78.68
2018-01-01T20:58:15.496Z,77.49
2018-01-01T21:00:41.704Z,76.60
2018-01-01T21:03:07.742Z,76.97
2018-01-01T21:05:33.757Z,77.71
2018-01-01T21:07:59.822Z,78.92
2018-01-01T21:10:25.924Z,79.25
2018-01-01T21:12:51.996Z,80.36
2018-01-01T21:15:18.077Z,81.45
2018-01-01T21:17:44.152Z,82.54
2018-01-01T21:20:10.190Z,83.36
2018-01-01T21:22:36.230Z,83.67
2018-01-01T21:25:02.349Z,85.13
2018-01-01T21:27:28.456Z,85.09
2018-01-01T21:29:54.585Z,85.38
2018-01-01T21:32:20.709Z,85.60
2018-01-01T21:34:46.855Z,85.75
2018-01-01T21:37:12.892Z,86.26
2018-01-01T21:39:38.962Z,86.61
2018-01-01T21:42:04.991Z,86.47
2018-01-01T21:44:31.050Z,86.50
2018-01-01T21:46:57.120Z,87.06
2018-01-01T21:49:23.147Z,87.09
2018-01-01T21:51:49.188Z,88.18
2018-01-01T21:54:15.248Z,87.68
2018-01-01T21:56:41.335Z,87.91
2018-01-01T21:59:07.409Z,87.67
2018-01-01T22:01:33.425Z,88.14
2018-01-01T22:03:59.404Z,88.21
2018-01-01T22:06:25.445Z,88.38
2018-01-01T22:08:51.493Z,88.62
2018-01-01T22:11:17.573Z,89.09
2018-01-01T22:13:43.620Z,89.34
2018-01-01T22:16:09.754Z,89.24
2018-01-01T22:18:35.870Z,89.17
2018-01-01T22:21:01.930Z,89.94
2018-01-01T22:23:28.050Z,89.94
2018-01-01T22:25:54.097Z,89.87
2018-01-01T22:28:20.204Z,89.80
2018-01-01T22:30:46.260Z,90.09
2018-01-01T22:33:12.326Z,89.81
2018-01-01T22:35:38.425Z,90.35
2018-01-01T22:38:04.536Z,90.21
2018-01-01T22:40:30.585Z,90.85
2018-01-01T22:42:56.683Z,90.69
2018-01-01T22:45:22.785Z,90.58
2018-01-01T22:47:48.813Z,90.82
2018-01-01T22:50:14.801Z,90.61
2018-01-01T22:52:40.806Z,90.30
2018-01-01T22:55:06.852Z,90.75
2018-01-01T22:57:32.877Z,90.58
2018-01-01T22:59:58.927Z,90.74
2018-01-01T23:02:25.369Z,90.69
2018-01-01T23:04:51.453Z,91.00
2018-01-01T23:07:17.493Z,90.96
2018-01-01T23:09:43.517Z,91.06
2018-01-01T23:12:09.550Z,91.31
2018-01-01T23:14:35.556Z,91.17
2018-01-01T23:17:01.589Z,91.86
2018-01-01T23:19:27.610Z,91.68
2018-01-01T23:21:53.674Z,91.44
2018-01-01T23:24:19.778Z,91.47
2018-01-01T23:26:45.832Z,91.59
2018-01-01T23:29:11.908Z,91.68
2018-01-01T23:31:38.165Z,91.50
2018-01-01T23:34:04.209Z,92.02
2018-01-01T23:36:30.249Z,91.80
2018-01-01T23:38:56.367Z,91.83
2018-01-01T23:41:22.489Z,91.79
2018-01-01T23:43:48.568Z,91.91
2018-01-01T23:46:14.585Z,91.72
2018-01-01T23:48:40.620Z,91.36
2018-01-01T23:51:06.684Z,91.66
2018-01-01T23:53:32.669Z,91.52
2018-01-01T23:55:58.716Z,92.05
2018-01-01T23:58:24.752Z,91.89
